createdAt,value
2022-09-15T00:04:15.481Z,99.90
2022-09-15T00:14:19.028Z,99.90
2022-09-15T00:24:20.944Z,99.90
2022-09-15T00:34:24.255Z,99.90
2022-09-15T00:44:46.476Z,99.90
2022-09-15T00:54:54.524Z,99.90
2022-09-15T01:04:58.764Z,99.90
2022-09-15T01:15:02.505Z,99.90
2022-09-15T01:25:09.662Z,99.90
2022-09-15T01:35:24.360Z,99.90
2022-09-15T01:45:31.128Z,99.90
2022-09-15T01:55:39.629Z,99.90
2022-09-15T02:05:45.016Z,99.90
2022-09-15T02:15:50.989Z,99.90
2022-09-15T02:25:57.058Z,99.90
2022-09-15T02:36:00.735Z,99.90
2022-09-15T02:46:02.897Z,99.90
2022-09-15T02:56:06.909Z,99.90
2022-09-15T03:06:09.234Z,99.90
2022-09-15T03:16:14.420Z,99.90
2022-09-15T03:26:16.395Z,99.90
2022-09-15T03:36:19.670Z,99.90
2022-09-15T03:46:21.612Z,99.90
2022-09-15T03:56:27.253Z,99.90
2022-09-15T04:06:29.172Z,99.90
2022-09-15T04:16:32.561Z,99.90
2022-09-15T04:26:36.710Z,99.90
2022-09-15T04:36:40.265Z,99.90
2022-09-15T04:46:42.287Z,99.90
2022-09-15T04:56:45.794Z,99.90
2022-09-15T05:06:47.947Z,99.90
2022-09-15T05:16:51.297Z,99.90
2022-09-15T05:26:53.273Z,99.90
2022-09-15T05:36:57.065Z,99.90
2022-09-15T05:46:59.089Z,99.90
2022-09-15T05:57:02.411Z,99.90
2022-09-15T06:07:04.344Z,99.90
2022-09-15T06:17:07.609Z,99.90
2022-09-15T06:27:09.496Z,99.90
2022-09-15T06:37:12.775Z,99.90
2022-09-15T06:47:15.263Z,99.90
2022-09-15T06:57:18.548Z,99.90
2022-09-15T07:07:20.419Z,99.90
2022-09-15T07:17:23.946Z,99.90
2022-09-15T07:27:25.842Z,99.90
2022-09-15T07:37:29.118Z,99.90
2022-09-15T07:47:31.025Z,99.90
2022-09-15T07:57:34.290Z,99.90
2022-09-15T08:07:36.208Z,99.90
2022-09-15T08:17:39.611Z,99.90
2022-09-15T08:27:41.506Z,99.90
2022-09-15T08:37:45.166Z,99.90
2022-09-15T08:47:52.510Z,99.90
2022-09-15T08:57:56.001Z,99.90
2022-09-15T09:08:22.214Z,99.90
2022-09-15T09:19:03.352Z,99.90
2022-09-15T09:29:12.105Z,99.90
2022-09-15T09:39:15.761Z,99.90
2022-09-15T09:49:22.715Z,99.90
2022-09-15T09:59:40.185Z,99.90
2022-09-15T10:09:50.265Z,99.90
2022-09-15T10:19:56.190Z,99.90
2022-09-15T10:30:12.269Z,99.90
2022-09-15T10:40:30.927Z,99.90
2022-09-15T10:50:45.053Z,99.90
2022-09-15T11:01:05.182Z,99.90
2022-09-15T11:11:14.923Z,99.90
2022-09-15T11:21:27.657Z,99.90
2022-09-15T11:31:33.429Z,99.90
2022-09-15T11:41:43.022Z,99.90
2022-09-15T11:51:52.534Z,99.90
2022-09-15T12:02:03.845Z,99.90
2022-09-15T12:12:10.982Z,99.90
2022-09-15T12:22:21.214Z,99.90
2022-09-15T12:32:25.708Z,99.90
2022-09-15T12:42:31.220Z,99.90
2022-09-15T12:52:44.319Z,99.90
2022-09-15T13:02:49.444Z,99.90
2022-09-15T13:13:07.541Z,99.90
2022-09-15T13:23:14.380Z,99.90
2022-09-15T13:44:37.357Z,99.90
2022-09-15T13:55:09.453Z,99.90
2022-09-15T14:05:13.938Z,99.90
2022-09-15T14:15:20.889Z,99.90
2022-09-15T14:25:24.903Z,99.90
2022-09-15T14:35:30.232Z,99.90
2022-09-15T14:46:01.211Z,99.00
2022-09-15T14:56:08.613Z,98.50
2022-09-15T15:06:33.060Z,97.10
2022-09-15T15:16:35.419Z,98.60
2022-09-15T15:26:41.425Z,98.90
2022-09-15T15:36:43.378Z,98.10
2022-09-15T15:46:51.855Z,99.50
2022-09-15T15:56:54.244Z,99.40
2022-09-15T16:06:57.574Z,99.90
2022-09-15T16:16:59.468Z,99.90
2022-09-15T16:27:02.755Z,99.90
2022-09-15T16:37:04.754Z,99.90
2022-09-15T16:47:08.046Z,99.90
2022-09-15T16:57:09.994Z,99.90
2022-09-15T17:07:13.529Z,99.90
2022-09-15T17:17:23.666Z,99.90
2022-09-15T17:27:27.028Z,99.90
2022-09-15T17:37:29.009Z,99.90
2022-09-15T17:47:32.437Z,99.90
2022-09-15T17:57:35.608Z,99.60
2022-09-15T18:07:38.934Z,99.70
2022-09-15T18:17:40.931Z,99.70
2022-09-15T18:27:44.531Z,99.90
2022-09-15T18:49:09.302Z,99.90
2022-09-15T18:59:11.246Z,99.90
2022-09-15T19:09:14.497Z,99.90
2022-09-15T19:19:16.510Z,99.90
2022-09-15T19:29:19.912Z,99.90
2022-09-15T19:39:21.884Z,99.90
2022-09-15T19:49:25.480Z,99.90
2022-09-15T19:59:31.849Z,99.90
2022-09-15T20:09:36.099Z,99.90
2022-09-15T20:19:38.033Z,99.90
2022-09-15T20:29:41.506Z,99.90
2022-09-15T20:39:44.090Z,99.90
2022-09-15T20:49:47.443Z,99.90
2022-09-15T20:59:49.376Z,99.90
2022-09-15T21:09:52.639Z,99.90
2022-09-15T21:19:54.609Z,99.90
2022-09-15T21:29:58.204Z,99.90
2022-09-15T21:40:00.225Z,99.90
2022-09-15T21:50:03.916Z,99.90
2022-09-15T22:00:07.013Z,99.90
2022-09-15T22:10:10.833Z,99.90
2022-09-15T22:20:12.803Z,99.90
2022-09-15T22:30:16.234Z,99.90
2022-09-15T22:40:18.195Z,99.90
2022-09-15T22:50:21.586Z,99.90
2022-09-15T23:00:24.060Z,99.90
2022-09-15T23:10:27.450Z,99.90
2022-09-15T23:20:29.379Z,99.90
2022-09-15T23:30:32.673Z,99.90
2022-09-15T23:40:34.622Z,99.90
2022-09-15T23:50:38.798Z,99.90
